Time;durP1;ratioP1;P1;durP2;ratioP2;P2;SDS_P1;SDS_P2;PMS_P1;PMS_P2;Temp;Humidity;BMP_temperature;BMP_pressure;BME280_temperature;BME280_humidity;BME280_pressure;Samples;Min_cycle;Max_cycle;Signal;HPM_P1;HPM_P2
2023/06/06 00:01:27;;;;;;;3.75;1.33;;;;;;;14.22;45.78;100076.03;10513488;28;20466;-59
2023/06/06 00:06:32;;;;;;;4.95;1.40;;;;;;;14.19;45.96;100071.84;10512328;28;20052;-60
2023/06/06 00:11:35;;;;;;;2.10;1.25;;;;;;;14.18;46.14;100066.69;10510338;28;20043;-59
2023/06/06 00:16:37;;;;;;;2.05;1.30;;;;;;;14.08;46.26;100066.53;10494217;28;20052;-59
2023/06/06 00:21:40;;;;;;;1.85;1.17;;;;;;;13.94;46.66;100069.31;10511787;28;20054;-59
2023/06/06 00:26:42;;;;;;;2.78;1.45;;;;;;;13.81;46.94;100068.50;10512851;28;20048;-59
2023/06/06 00:31:44;;;;;;;2.30;1.38;;;;;;;13.59;47.21;100069.16;10513053;28;20164;-59
2023/06/06 00:36:46;;;;;;;2.78;1.67;;;;;;;13.59;47.33;100068.31;10506294;28;20136;-59
2023/06/06 00:41:49;;;;;;;3.90;1.27;;;;;;;13.56;47.42;100076.41;10512216;28;20036;-58
2023/06/06 00:46:51;;;;;;;3.00;1.38;;;;;;;13.48;47.52;100076.09;10508751;28;20051;-59
2023/06/06 00:51:53;;;;;;;1.88;1.40;;;;;;;13.03;48.24;100079.22;10509758;28;20131;-59
2023/06/06 00:56:55;;;;;;;3.05;1.50;;;;;;;13.08;48.41;100074.50;10509140;28;20055;-59
2023/06/06 01:01:58;;;;;;;2.42;1.40;;;;;;;13.17;48.43;100077.31;10511688;28;20210;-59
2023/06/06 01:07:01;;;;;;;4.35;1.50;;;;;;;13.05;48.65;100077.34;10507713;28;20339;-59
2023/06/06 01:12:18;;;;;;;3.83;1.33;;;;;;;12.87;50.29;100076.78;10512045;28;20138;-59
2023/06/06 01:17:25;;;;;;;2.00;1.23;;;;;;;12.91;49.53;100076.47;10508610;28;20519;-59
2023/06/06 01:22:28;;;;;;;1.58;1.17;;;;;;;12.89;49.53;100078.34;10508072;28;20421;-59
2023/06/06 01:27:33;;;;;;;2.35;1.38;;;;;;;12.82;49.46;100073.63;10507311;28;20055;-59
2023/06/06 01:32:50;;;;;;;1.63;1.23;;;;;;;12.83;50.67;100077.91;10491083;28;20071;-60
2023/06/06 01:38:12;;;;;;;2.47;1.35;;;;;;;12.69;50.97;100084.09;10505765;28;20593;-60
2023/06/06 01:43:17;;;;;;;2.30;1.40;;;;;;;12.68;50.08;100086.81;10506870;28;20092;-60
2023/06/06 01:48:19;;;;;;;2.25;1.50;;;;;;;12.65;50.15;100077.38;10508346;28;20143;-60
2023/06/06 01:53:21;;;;;;;1.85;1.35;;;;;;;12.54;50.37;100076.38;10507888;28;20044;-60
2023/06/06 01:58:23;;;;;;;2.08;1.30;;;;;;;12.37;50.86;100085.34;10508518;28;20040;-60
2023/06/06 02:03:25;;;;;;;2.22;1.45;;;;;;;12.44;50.44;100078.75;10494053;28;20207;-60
2023/06/06 02:08:27;;;;;;;2.67;1.50;;;;;;;12.49;50.42;100084.56;10513194;28;20040;-60
2023/06/06 02:13:29;;;;;;;2.97;1.50;;;;;;;12.51;50.58;100090.53;10509085;28;20048;-60
2023/06/06 02:18:31;;;;;;;3.00;1.70;;;;;;;12.52;50.44;100094.00;10513837;28;20500;-60
2023/06/06 02:23:33;;;;;;;2.75;1.40;;;;;;;12.37;50.86;100087.13;10513971;28;20358;-60
2023/06/06 02:28:35;;;;;;;2.13;1.50;;;;;;;12.22;51.21;100078.44;10515667;28;20407;-60
2023/06/06 02:33:37;;;;;;;3.78;1.40;;;;;;;12.23;51.25;100089.78;10514248;28;20040;-60
2023/06/06 02:38:39;;;;;;;2.35;1.50;;;;;;;12.23;51.12;100085.38;10510826;28;20514;-60
2023/06/06 02:43:42;;;;;;;2.08;1.40;;;;;;;12.18;51.17;100087.44;10513407;28;20044;-60
2023/06/06 02:48:47;;;;;;;3.45;1.40;;;;;;;12.08;51.35;100084.56;10520217;28;20288;-60
2023/06/06 02:53:49;;;;;;;2.05;1.30;;;;;;;12.09;51.34;100088.00;10519861;28;20170;-60
2023/06/06 02:58:52;;;;;;;2.35;1.40;;;;;;;12.02;51.55;100078.84;10522713;28;20044;-60
2023/06/06 03:03:54;;;;;;;4.22;1.60;;;;;;;11.99;51.65;100081.66;10516524;28;20054;-60
2023/06/06 03:08:58;;;;;;;2.25;1.40;;;;;;;11.90;51.77;100087.50;10513725;28;20060;-60
2023/06/06 03:14:00;;;;;;;4.10;1.52;;;;;;;11.64;52.18;100099.56;10514710;28;20488;-60
2023/06/06 03:19:04;;;;;;;2.05;1.50;;;;;;;11.28;52.79;100104.44;10513278;28;20047;-60
2023/06/06 03:24:08;;;;;;;3.13;1.52;;;;;;;11.53;52.70;100101.19;10513698;28;20055;-60
2023/06/06 03:29:11;;;;;;;3.13;1.58;;;;;;;11.72;52.54;100101.75;10513047;28;20491;-60
2023/06/06 03:34:13;;;;;;;1.83;1.40;;;;;;;11.78;52.46;100104.84;10514165;28;20303;-59
2023/06/06 03:39:16;;;;;;;2.85;1.20;;;;;;;11.70;52.53;100114.91;10493791;28;20072;-60
2023/06/06 03:44:18;;;;;;;1.77;1.27;;;;;;;11.37;52.70;100122.22;10512644;28;20731;-59
2023/06/06 03:49:20;;;;;;;2.70;1.50;;;;;;;11.14;53.77;100123.59;10496144;28;20048;-59
2023/06/06 03:54:22;;;;;;;2.15;1.35;;;;;;;11.20;53.71;100120.59;10512444;28;20040;-59
2023/06/06 03:59:24;;;;;;;3.53;1.45;;;;;;;11.67;53.26;100124.75;10525659;28;20118;-59
2023/06/06 04:04:26;;;;;;;2.60;1.38;;;;;;;11.93;52.77;100118.75;10494460;28;20074;-60
2023/06/06 04:09:28;;;;;;;2.67;1.48;;;;;;;12.23;52.40;100126.47;10510224;28;20448;-59
2023/06/06 04:14:30;;;;;;;3.05;1.30;;;;;;;13.73;50.48;100116.34;10511195;28;20167;-59
2023/06/06 04:19:32;;;;;;;2.75;1.60;;;;;;;15.36;47.62;100113.97;10509723;28;20048;-60
2023/06/06 04:24:34;;;;;;;1.63;1.30;;;;;;;16.55;45.37;100100.97;10512692;28;20044;-60
2023/06/06 04:29:37;;;;;;;2.65;1.42;;;;;;;18.05;43.38;100099.56;10511267;28;20404;-60
2023/06/06 04:34:41;;;;;;;1.65;1.15;;;;;;;19.34;41.56;100095.59;10513641;28;20132;-60
2023/06/06 04:39:45;;;;;;;2.58;1.50;;;;;;;20.50;39.48;100099.41;10508078;28;20065;-59
2023/06/06 04:44:49;;;;;;;2.38;1.42;;;;;;;21.52;37.71;100093.47;10510652;28;20477;-60
2023/06/06 04:49:54;;;;;;;4.93;1.42;;;;;;;22.10;36.49;100092.78;10509675;28;20055;-60
2023/06/06 04:54:56;;;;;;;1.92;1.30;;;;;;;22.81;35.38;100093.13;10493135;28;20131;-60
2023/06/06 04:59:58;;;;;;;1.15;1.05;;;;;;;23.07;34.77;100097.31;10510957;28;20055;-60
2023/06/06 05:05:01;;;;;;;2.67;1.50;;;;;;;23.39;33.99;100097.28;10498018;28;20048;-60
2023/06/06 05:10:05;;;;;;;2.35;1.40;;;;;;;24.34;32.81;100092.81;10504894;28;20048;-60
2023/06/06 05:15:08;;;;;;;2.90;1.45;;;;;;;24.36;32.46;100093.47;10497604;28;20287;-60
2023/06/06 05:20:10;;;;;;;2.33;1.40;;;;;;;24.78;31.88;100093.88;10507462;28;20047;-61
2023/06/06 05:25:12;;;;;;;2.25;1.40;;;;;;;24.13;31.74;100088.91;10504673;28;20036;-60
2023/06/06 05:30:14;;;;;;;2.10;1.42;;;;;;;22.24;33.45;100103.66;10506659;28;20056;-60
2023/06/06 05:35:16;;;;;;;3.50;1.30;;;;;;;20.53;35.62;100107.09;10500609;28;20040;-60
2023/06/06 05:40:18;;;;;;;1.48;1.05;;;;;;;19.30;36.96;100122.53;10501317;28;20329;-60
2023/06/06 05:45:20;;;;;;;2.50;1.35;;;;;;;18.49;38.28;100121.16;10503293;28;20613;-60
2023/06/06 05:50:22;;;;;;;3.20;1.40;;;;;;;17.83;39.28;100127.88;10505185;28;20052;-59
2023/06/06 05:55:35;;;;;;;2.38;1.40;;;;;;;17.31;41.09;100127.97;10499761;28;20040;-60
2023/06/06 06:00:38;;;;;;;2.75;1.50;;;;;;;17.19;41.08;100131.66;10503292;28;20055;-59
2023/06/06 06:05:40;;;;;;;2.35;1.50;;;;;;;17.57;41.17;100126.63;10500912;28;20557;-58
2023/06/06 06:10:42;;;;;;;3.08;1.60;;;;;;;17.77;41.17;100127.59;10504730;28;20040;-59
2023/06/06 06:15:45;;;;;;;2.40;1.40;;;;;;;18.12;40.85;100120.03;10501171;28;20236;-59
2023/06/06 06:20:47;;;;;;;2.15;1.40;;;;;;;18.51;40.50;100115.69;10504777;28;20040;-59
2023/06/06 06:25:50;;;;;;;2.70;1.50;;;;;;;18.69;40.24;100115.88;10502821;28;20052;-59
2023/06/06 06:30:54;;;;;;;2.60;1.40;;;;;;;18.77;40.15;100111.53;10502884;28;20101;-59
2023/06/06 06:35:56;;;;;;;3.13;1.67;;;;;;;18.71;40.28;100113.94;10501678;28;20317;-59
2023/06/06 06:40:57;;;;;;;7.78;2.60;;;;;;;18.92;40.26;100123.41;10505436;28;20041;-58
2023/06/06 06:45:59;;;;;;;3.95;2.25;;;;;;;19.36;39.26;100128.13;10501661;28;20055;-59
2023/06/06 06:51:01;;;;;;;3.17;1.40;;;;;;;19.13;40.34;100133.88;10495737;28;20052;-59
2023/06/06 06:56:04;;;;;;;2.95;1.67;;;;;;;19.64;39.12;100129.03;10500526;28;20044;-58
2023/06/06 07:01:06;;;;;;;2.78;1.50;;;;;;;20.35;38.00;100132.81;10501365;28;20064;-59
2023/06/06 07:06:08;;;;;;;2.50;1.40;;;;;;;19.84;38.62;100137.78;10499964;28;20044;-59
2023/06/06 07:11:10;;;;;;;2.60;1.40;;;;;;;19.57;39.01;100129.75;10499709;28;20497;-58
2023/06/06 07:16:12;;;;;;;2.63;1.50;;;;;;;20.39;38.92;100130.69;10496052;28;20048;-59
2023/06/06 07:21:14;;;;;;;4.22;1.90;;;;;;;22.75;36.23;100117.78;10500028;28;20904;-58
2023/06/06 07:26:19;;;;;;;2.38;1.48;;;;;;;23.94;33.93;100116.00;10501935;28;20048;-59
2023/06/06 07:31:21;;;;;;;2.88;1.50;;;;;;;24.21;33.34;100112.94;10483217;28;20059;-59
2023/06/06 07:36:25;;;;;;;3.53;1.80;;;;;;;25.55;31.91;100103.44;10503793;28;20162;-59
2023/06/06 07:41:29;;;;;;;3.10;1.73;;;;;;;26.08;31.16;100099.66;10509696;28;20036;-59
2023/06/06 07:46:31;;;;;;;3.55;1.70;;;;;;;27.03;29.76;100091.22;10506333;28;20040;-59
2023/06/06 07:51:33;;;;;;;3.20;1.70;;;;;;;27.52;28.34;100090.38;10507176;28;20431;-59
2023/06/06 07:56:37;;;;;;;2.53;1.40;;;;;;;27.58;28.26;100084.22;10502893;28;20068;-59
2023/06/06 08:01:39;;;;;;;3.25;1.67;;;;;;;28.15;27.95;100082.88;10507888;28;20137;-60
2023/06/06 08:06:42;;;;;;;2.42;1.48;;;;;;;28.38;26.60;100079.06;10501265;28;20036;-59
2023/06/06 08:11:44;;;;;;;2.38;1.50;;;;;;;27.99;26.88;100077.03;10507202;28;20060;-59
2023/06/06 08:16:46;;;;;;;3.00;1.48;;;;;;;28.26;26.28;100073.38;10501690;28;20040;-60
2023/06/06 08:21:47;;;;;;;2.35;1.35;;;;;;;27.69;26.40;100075.59;10509092;28;20533;-62
2023/06/06 08:26:50;;;;;;;2.20;1.30;;;;;;;26.86;27.09;100068.34;10506651;28;20040;-59
2023/06/06 08:31:53;;;;;;;2.55;1.40;;;;;;;26.86;27.21;100068.34;10508231;28;20186;-60
2023/06/06 08:36:56;;;;;;;2.38;1.40;;;;;;;27.28;26.83;100067.50;10501737;28;20488;-59
2023/06/06 08:41:58;;;;;;;2.08;1.40;;;;;;;27.63;26.37;100060.28;10506286;28;20043;-59
2023/06/06 08:47:02;;;;;;;2.03;1.40;;;;;;;28.23;25.87;100054.97;10507783;28;20048;-59
2023/06/06 08:52:07;;;;;;;4.43;1.45;;;;;;;28.21;25.23;100060.56;10507715;28;20075;-60
2023/06/06 08:57:11;;;;;;;2.65;1.48;;;;;;;27.97;24.73;100055.69;10506606;28;20047;-59
2023/06/06 09:02:13;;;;;;;4.35;1.40;;;;;;;28.03;24.98;100049.50;10501448;28;20055;-60
2023/06/06 09:07:15;;;;;;;2.55;1.45;;;;;;;28.14;24.79;100050.78;10503894;28;20484;-60
2023/06/06 09:12:17;;;;;;;5.22;1.58;;;;;;;28.65;24.41;100052.00;10504890;28;20054;-60
2023/06/06 09:17:19;;;;;;;1.85;1.38;;;;;;;28.60;24.22;100046.41;10508294;28;20048;-59
2023/06/06 09:22:21;;;;;;;2.70;1.50;;;;;;;28.74;24.01;100041.84;10502902;28;20052;-60
2023/06/06 09:27:28;;;;;;;3.10;1.58;;;;;;;28.90;23.35;100039.63;10506169;28;20050;-59
2023/06/06 09:32:30;;;;;;;2.72;1.30;;;;;;;28.83;23.71;100040.59;10505426;28;20328;-59
2023/06/06 09:37:33;;;;;;;2.90;1.67;;;;;;;28.88;23.71;100032.78;10508423;28;20048;-59
2023/06/06 09:42:37;;;;;;;3.25;1.30;;;;;;;29.38;23.84;100026.72;10504896;28;20047;-58
2023/06/06 09:47:43;;;;;;;1.60;1.25;;;;;;;28.76;23.25;100032.56;10506143;28;20046;-59
2023/06/06 09:52:51;;;;;;;3.55;1.65;;;;;;;28.81;23.70;100034.59;10502694;28;20048;-59
2023/06/06 09:57:56;;;;;;;3.55;1.40;;;;;;;28.52;23.38;100035.84;10506476;28;20059;-59
2023/06/06 10:03:01;;;;;;;2.38;1.50;;;;;;;28.46;22.75;100033.94;10504984;28;20232;-59
2023/06/06 10:08:09;;;;;;;2.58;1.33;;;;;;;28.09;23.52;100032.59;10502686;28;20043;-59
2023/06/06 10:13:13;;;;;;;2.00;1.40;;;;;;;28.69;23.10;100020.94;10503585;28;20101;-59
2023/06/06 10:18:15;;;;;;;2.13;1.35;;;;;;;29.12;22.84;100015.16;10507163;28;20040;-59
2023/06/06 10:23:17;;;;;;;2.42;1.50;;;;;;;28.22;23.28;100012.97;10501677;28;20044;-59
2023/06/06 10:28:31;;;;;;;2.03;1.40;;;;;;;28.19;22.63;100010.69;10486215;28;20044;-59
2023/06/06 10:33:42;;;;;;;2.40;1.30;;;;;;;28.18;23.12;100006.34;10499259;28;20044;-59
2023/06/06 10:39:23;;;;;;;3.05;1.75;;;;;;;27.84;22.57;100001.06;10504293;28;20056;-59
2023/06/06 10:44:43;;;;;;;2.25;1.35;;;;;;;27.47;22.45;100008.50;10499622;28;20088;-59
2023/06/06 10:55:22;;;;;;;2.85;1.40;;;;;;;27.59;22.05;99999.88;10502408;28;20508;-58
2023/06/06 11:00:25;;;;;;;3.60;1.55;;;;;;;27.49;22.11;100008.31;10506109;28;20055;-59
2023/06/06 11:05:28;;;;;;;2.00;1.40;;;;;;;27.72;21.69;100002.63;10501787;28;20060;-59
2023/06/06 11:10:46;;;;;;;2.92;1.70;;;;;;;27.23;19.33;100000.94;10510384;28;20056;-59
2023/06/06 11:15:55;;;;;;;2.72;1.70;;;;;;;27.11;20.56;99988.22;10510674;28;20115;-59
2023/06/06 11:20:57;;;;;;;2.90;1.58;;;;;;;26.91;19.72;99998.81;10512580;28;20055;-59
2023/06/06 11:25:59;;;;;;;3.50;1.60;;;;;;;26.92;20.87;99980.84;10504564;28;20412;-59
2023/06/06 11:31:02;;;;;;;2.28;1.40;;;;;;;27.02;20.65;99976.78;10508828;28;20048;-59
2023/06/06 11:36:09;;;;;;;2.85;1.50;;;;;;;26.85;20.56;99980.81;10505042;28;20044;-59
2023/06/06 11:41:12;;;;;;;2.42;1.48;;;;;;;26.95;20.41;99981.31;10511433;28;20500;-59
2023/06/06 11:46:15;;;;;;;2.55;1.60;;;;;;;26.99;20.19;99969.16;10504517;28;20154;-59
2023/06/06 11:51:17;;;;;;;2.60;1.45;;;;;;;27.40;19.71;99963.84;10512606;28;20048;-59
2023/06/06 11:56:19;;;;;;;2.58;1.60;;;;;;;26.71;20.95;99979.03;10501345;28;20492;-59
2023/06/06 12:01:21;;;;;;;3.25;1.75;;;;;;;26.62;21.58;99972.16;10507175;28;20044;-59
2023/06/06 12:06:24;;;;;;;2.78;1.50;;;;;;;26.66;21.58;99970.75;10507015;28;20055;-59
2023/06/06 12:11:31;;;;;;;2.58;1.45;;;;;;;26.89;21.66;99966.00;10507207;28;20185;-59
2023/06/06 12:16:33;;;;;;;2.13;1.60;;;;;;;26.88;21.42;99956.25;10512849;28;20348;-59
2023/06/06 12:21:49;;;;;;;3.38;1.67;;;;;;;27.27;19.46;99959.22;10508104;28;20051;-60
2023/06/06 12:26:53;;;;;;;3.40;1.60;;;;;;;27.39;20.81;99957.66;10511178;28;20044;-59
2023/06/06 12:32:14;;;;;;;2.35;1.45;;;;;;;27.07;21.47;99963.63;10511310;28;20048;-59
2023/06/06 12:37:17;;;;;;;2.72;1.70;;;;;;;26.75;21.78;99958.84;10512014;28;20047;-59
2023/06/06 12:42:20;;;;;;;2.25;1.55;;;;;;;26.89;22.06;99966.00;10510265;28;20286;-59
2023/06/06 12:47:22;;;;;;;4.32;1.52;;;;;;;26.89;22.21;99965.16;10509393;28;20051;-59
2023/06/06 12:52:25;;;;;;;2.85;1.60;;;;;;;27.06;21.40;99967.31;10512788;28;20483;-59
2023/06/06 12:57:26;;;;;;;2.65;1.60;;;;;;;26.87;21.36;99968.03;10511163;28;20075;-60
2023/06/06 13:02:32;;;;;;;2.67;1.58;;;;;;;26.97;21.10;99962.31;10510861;28;20058;-59
2023/06/06 13:07:36;;;;;;;3.08;1.60;;;;;;;27.21;21.43;99970.75;10512269;28;20044;-59
2023/06/06 13:12:42;;;;;;;5.05;1.65;;;;;;;27.24;21.58;99964.97;10512070;28;20138;-59
2023/06/06 13:17:44;;;;;;;2.20;1.40;;;;;;;26.82;22.12;99962.41;10511048;28;20561;-59
2023/06/06 13:22:46;;;;;;;2.83;1.40;;;;;;;26.91;21.79;99957.72;10511754;28;20172;-59
2023/06/06 13:27:48;;;;;;;2.67;1.67;;;;;;;26.05;22.27;99958.81;10512015;28;20044;-59
2023/06/06 13:32:50;;;;;;;3.22;1.70;;;;;;;25.98;22.36;99954.41;10507499;28;20496;-59
2023/06/06 13:37:52;;;;;;;2.47;1.45;;;;;;;26.23;22.22;99944.94;10510733;28;20044;-59
2023/06/06 13:42:54;;;;;;;2.88;1.60;;;;;;;26.61;22.12;99943.66;10509529;28;20447;-59
2023/06/06 13:47:56;;;;;;;2.92;1.48;;;;;;;26.46;21.63;99948.25;10500696;28;20055;-59
2023/06/06 13:52:58;;;;;;;4.15;1.30;;;;;;;26.63;21.60;99946.97;10508053;28;20046;-59
2023/06/06 13:58:03;;;;;;;3.13;1.52;;;;;;;26.45;21.56;99943.91;10507165;28;20055;-59
2023/06/06 14:03:06;;;;;;;2.25;1.40;;;;;;;26.63;21.57;99946.97;10509169;28;20129;-59
2023/06/06 14:08:09;;;;;;;3.33;1.63;;;;;;;26.35;21.53;99941.56;10510887;28;20051;-59
2023/06/06 14:13:11;;;;;;;2.47;1.60;;;;;;;26.83;21.33;99931.88;10506754;28;20048;-59
2023/06/06 14:18:13;;;;;;;2.58;1.40;;;;;;;26.80;20.87;99932.25;10509596;28;20055;-59
2023/06/06 14:23:15;;;;;;;3.95;1.52;;;;;;;26.75;21.46;99915.91;10506047;28;20040;-59
2023/06/06 14:28:18;;;;;;;2.78;1.55;;;;;;;26.65;21.79;99913.56;10504736;28;20500;-59
2023/06/06 14:33:20;;;;;;;2.30;1.35;;;;;;;26.61;21.29;99912.31;10508950;28;20059;-59
2023/06/06 14:38:22;;;;;;;4.03;1.60;;;;;;;26.74;21.18;99921.47;10505934;28;20132;-59
2023/06/06 14:43:24;;;;;;;3.13;1.52;;;;;;;26.88;21.68;99913.31;10505191;28;20052;-59
2023/06/06 14:48:26;;;;;;;5.47;1.90;;;;;;;26.93;21.03;99918.09;10511889;28;20044;-59
2023/06/06 14:53:28;;;;;;;3.63;1.45;;;;;;;26.84;20.14;99914.75;10511710;28;20051;-60
2023/06/06 14:58:30;;;;;;;2.25;1.50;;;;;;;26.76;20.50;99906.84;10506079;28;20044;-59
2023/06/06 15:03:33;;;;;;;3.10;1.90;;;;;;;27.03;20.96;99894.41;10509760;28;20388;-59
2023/06/06 15:08:36;;;;;;;1.77;1.33;;;;;;;27.15;20.68;99892.84;10500775;28;20079;-59
2023/06/06 15:13:40;;;;;;;3.40;1.60;;;;;;;27.21;21.14;99892.06;10500728;28;21008;-59
2023/06/06 15:18:44;;;;;;;2.38;1.30;;;;;;;27.57;21.46;99883.72;10491720;28;20052;-58
2023/06/06 15:23:46;;;;;;;2.28;1.30;;;;;;;27.30;22.72;99902.41;10501286;28;20040;-58
2023/06/06 15:28:48;;;;;;;2.55;1.52;;;;;;;26.63;23.26;99898.69;10495312;28;20491;-58
2023/06/06 15:33:50;;;;;;;2.75;1.52;;;;;;;26.19;24.07;99903.47;10506142;28;20243;-58
2023/06/06 15:38:52;;;;;;;5.85;1.70;;;;;;;25.96;24.14;99910.88;10500285;28;20044;-59
2023/06/06 15:43:55;;;;;;;3.85;1.40;;;;;;;25.43;24.84;99909.41;10499264;28;20051;-58
2023/06/06 15:48:56;;;;;;;3.40;1.48;;;;;;;25.69;24.67;99910.53;10502673;28;20044;-59
2023/06/06 15:53:58;;;;;;;5.40;1.77;;;;;;;25.63;25.06;99918.53;10498907;28;20044;-59
2023/06/06 15:59:00;;;;;;;2.08;1.30;;;;;;;25.30;25.47;99919.94;10503892;28;20048;-58
2023/06/06 16:04:03;;;;;;;2.42;1.60;;;;;;;25.12;25.37;99928.34;10503059;28;20050;-58
2023/06/06 16:09:05;;;;;;;2.78;1.67;;;;;;;25.55;24.98;99942.75;10499156;28;20043;-58
2023/06/06 16:14:06;;;;;;;3.25;1.50;;;;;;;25.73;25.24;99938.63;10503958;28;20047;-58
2023/06/06 16:19:09;;;;;;;4.70;1.58;;;;;;;25.95;24.86;99947.53;10497914;28;20044;-58
2023/06/06 16:24:11;;;;;;;2.30;1.40;;;;;;;25.24;25.13;99952.78;10503097;28;20040;-58
2023/06/06 16:29:13;;;;;;;2.28;1.40;;;;;;;24.10;25.56;99960.19;10496544;28;20048;-58
2023/06/06 16:34:14;;;;;;;3.35;1.48;;;;;;;24.23;25.73;99971.94;10500205;28;20238;-58
2023/06/06 16:39:17;;;;;;;1.58;1.15;;;;;;;24.20;25.57;99996.34;10500190;28;20063;-58
2023/06/06 16:44:21;;;;;;;1.98;1.23;;;;;;;23.99;26.03;99996.09;10502731;28;20040;-58
2023/06/06 16:49:23;;;;;;;2.92;1.40;;;;;;;24.22;25.84;99991.66;10500578;28;20059;-57
2023/06/06 16:54:25;;;;;;;2.00;1.30;;;;;;;24.23;25.71;100008.50;10502743;28;20048;-58
2023/06/06 16:59:29;;;;;;;2.00;1.20;;;;;;;24.24;25.88;100003.00;10491418;28;20044;-58
2023/06/06 17:04:31;;;;;;;1.95;1.40;;;;;;;24.08;26.20;99994.25;10498061;28;20074;-58
2023/06/06 17:09:33;;;;;;;2.05;1.23;;;;;;;23.83;26.02;100004.22;10490284;28;20044;-58
2023/06/06 17:14:37;;;;;;;2.70;1.40;;;;;;;24.01;26.22;99995.91;10488938;28;20538;-60
2023/06/06 17:19:39;;;;;;;2.03;1.33;;;;;;;23.97;25.83;100014.16;10494332;28;20063;-60
2023/06/06 17:24:45;;;;;;;2.90;1.33;;;;;;;23.48;26.20;100010.88;10493018;28;20044;-59
2023/06/06 17:29:47;;;;;;;2.03;1.15;;;;;;;23.56;26.29;100015.34;10496200;28;20119;-59
2023/06/06 17:34:49;;;;;;;2.67;1.27;;;;;;;23.38;26.18;100023.56;10499359;28;20040;-60
2023/06/06 17:39:51;;;;;;;2.10;1.25;;;;;;;23.12;26.51;100019.44;10498325;28;20055;-59
2023/06/06 17:44:54;;;;;;;1.90;1.25;;;;;;;23.00;26.87;100023.47;10495201;28;20127;-59
2023/06/06 17:49:56;;;;;;;2.50;1.23;;;;;;;22.75;26.91;100024.47;10503511;28;20527;-59
2023/06/06 17:55:00;;;;;;;2.80;1.45;;;;;;;22.47;27.27;100032.78;10491124;28;20048;-60
2023/06/06 18:00:03;;;;;;;2.10;1.25;;;;;;;22.32;27.65;100039.75;10494534;28;20462;-60
2023/06/06 18:05:09;;;;;;;2.13;1.25;;;;;;;22.32;27.69;100037.06;10494605;28;20578;-59
2023/06/06 18:10:31;;;;;;;2.42;1.50;;;;;;;22.17;28.13;100030.72;10494341;28;20138;-60
2023/06/06 18:15:33;;;;;;;2.83;1.70;;;;;;;22.12;28.18;100033.03;10492403;28;20043;-60
2023/06/06 18:20:35;;;;;;;2.47;1.30;;;;;;;22.03;28.42;100033.13;10496576;28;20048;-59
2023/06/06 18:25:36;;;;;;;3.10;1.27;;;;;;;21.78;28.83;100024.25;10490242;28;20530;-59
2023/06/06 18:30:38;;;;;;;2.22;1.40;;;;;;;21.43;29.53;100025.25;10499218;28;20048;-59
2023/06/06 18:35:40;;;;;;;2.38;1.50;;;;;;;21.39;29.62;100031.06;10503861;28;20048;-59
2023/06/06 18:40:42;;;;;;;1.67;1.20;;;;;;;21.28;30.03;100039.25;10500462;28;20059;-60
2023/06/06 18:45:50;;;;;;;3.85;1.40;;;;;;;21.07;30.59;100037.81;10503715;28;20052;-60
2023/06/06 18:50:53;;;;;;;1.70;1.17;;;;;;;20.97;30.36;100041.53;10502459;28;20040;-59
2023/06/06 18:55:56;;;;;;;2.03;1.33;;;;;;;20.89;30.22;100044.13;10502409;28;20044;-59
2023/06/06 19:00:59;;;;;;;2.75;1.42;;;;;;;20.89;30.74;100036.16;10495371;28;20101;-59
2023/06/06 19:06:01;;;;;;;3.58;1.45;;;;;;;20.88;30.73;100042.47;10503007;28;20051;-59
2023/06/06 19:11:08;;;;;;;2.78;1.38;;;;;;;20.78;30.99;100055.03;10504126;28;20056;-59
2023/06/06 19:16:10;;;;;;;2.45;1.25;;;;;;;20.76;31.02;100057.84;10500014;28;20131;-59
2023/06/06 19:21:12;;;;;;;2.17;1.33;;;;;;;20.47;31.19;100049.25;10501845;28;20064;-59
2023/06/06 19:26:14;;;;;;;2.08;1.40;;;;;;;20.15;31.70;100051.56;10502724;28;20044;-59
2023/06/06 19:31:16;;;;;;;2.42;1.50;;;;;;;20.13;31.99;100059.66;10508474;28;20055;-59
2023/06/06 19:36:18;;;;;;;2.35;1.40;;;;;;;20.07;31.98;100070.06;10507542;28;20044;-59
2023/06/06 19:41:20;;;;;;;3.58;1.25;;;;;;;19.84;32.71;100077.59;10512388;28;20492;-59
2023/06/06 19:46:22;;;;;;;2.20;1.35;;;;;;;19.42;33.29;100085.09;10507059;28;20071;-59
2023/06/06 19:51:24;;;;;;;2.58;1.40;;;;;;;19.30;33.30;100085.41;10512536;28;20167;-59
2023/06/06 19:56:26;;;;;;;2.08;1.10;;;;;;;19.28;33.62;100087.38;10511992;28;20048;-59
2023/06/06 20:01:28;;;;;;;4.80;1.30;;;;;;;19.27;34.15;100091.03;10510919;28;20052;-59
2023/06/06 20:06:35;;;;;;;2.53;1.35;;;;;;;19.11;35.16;100099.56;10508210;28;20403;-59
2023/06/06 20:11:37;;;;;;;1.67;1.20;;;;;;;19.07;35.22;100095.53;10492081;28;20051;-59
2023/06/06 20:16:39;;;;;;;3.22;1.65;;;;;;;18.91;35.61;100105.81;10506661;28;20048;-59
2023/06/06 20:21:41;;;;;;;2.42;1.40;;;;;;;18.57;35.90;100104.56;10510125;28;20070;-58
2023/06/06 20:26:43;;;;;;;3.05;1.48;;;;;;;18.39;36.57;100116.78;10510124;28;20056;-58
2023/06/06 20:31:45;;;;;;;4.13;1.65;;;;;;;18.32;36.44;100118.34;10507935;28;20189;-59
2023/06/06 20:36:47;;;;;;;2.60;1.50;;;;;;;18.26;36.72;100118.88;10511154;28;20127;-59
2023/06/06 20:41:50;;;;;;;2.85;1.52;;;;;;;18.21;37.10;100110.50;10506512;28;20556;-58
2023/06/06 20:46:52;;;;;;;2.42;1.48;;;;;;;18.09;37.36;100120.31;10505726;28;20044;-59
2023/06/06 20:51:54;;;;;;;2.17;1.30;;;;;;;18.06;37.56;100125.88;10507276;28;20059;-58
2023/06/06 20:56:56;;;;;;;3.53;1.70;;;;;;;17.81;38.12;100129.00;10511413;28;20064;-59
2023/06/06 21:01:58;;;;;;;2.17;1.35;;;;;;;17.66;38.71;100130.31;10502773;28;20443;-58
2023/06/06 21:07:00;;;;;;;1.95;1.30;;;;;;;17.53;38.61;100130.50;10505856;28;20048;-59
2023/06/06 21:12:02;;;;;;;3.22;1.50;;;;;;;17.55;38.92;100133.88;10504496;28;20047;-58
2023/06/06 21:17:05;;;;;;;3.38;1.30;;;;;;;17.48;39.11;100130.09;10502447;28;20349;-59
2023/06/06 21:22:07;;;;;;;7.95;1.50;;;;;;;17.42;39.18;100135.91;10508268;28;20038;-59
2023/06/06 21:27:09;;;;;;;2.28;1.50;;;;;;;17.20;39.59;100135.97;10492765;28;20044;-59
2023/06/06 21:32:11;;;;;;;2.47;1.42;;;;;;;16.76;40.52;100133.53;10507385;28;20048;-59
2023/06/06 21:37:13;;;;;;;2.45;1.50;;;;;;;16.54;41.06;100134.47;10508108;28;20062;-58
2023/06/06 21:42:15;;;;;;;3.35;1.60;;;;;;;16.61;41.10;100132.97;10508669;28;20063;-58
2023/06/06 21:47:16;;;;;;;2.72;1.50;;;;;;;16.46;41.17;100138.69;10504424;28;21029;-58
2023/06/06 21:52:19;;;;;;;2.63;1.50;;;;;;;16.48;41.31;100132.31;10501767;28;20055;-59
2023/06/06 21:57:21;;;;;;;2.50;1.45;;;;;;;16.11;42.31;100137.03;10505467;28;20044;-58
2023/06/06 22:02:22;;;;;;;2.53;1.60;;;;;;;16.05;42.41;100134.88;10505112;28;20067;-58
2023/06/06 22:07:24;;;;;;;2.72;1.63;;;;;;;16.18;42.30;100140.84;10504722;28;20040;-58
2023/06/06 22:12:26;;;;;;;3.05;1.40;;;;;;;16.11;42.55;100137.03;10504076;28;20051;-59
2023/06/06 22:17:28;;;;;;;4.93;1.65;;;;;;;15.99;43.07;100145.06;10502387;28;20044;-59
2023/06/06 22:22:30;;;;;;;2.72;1.45;;;;;;;15.94;43.26;100140.16;10505246;28;20055;-58
2023/06/06 22:27:32;;;;;;;3.30;1.60;;;;;;;15.79;43.68;100140.53;10503665;28;20048;-58
2023/06/06 22:32:34;;;;;;;2.97;1.60;;;;;;;15.79;43.63;100148.44;10506408;28;20047;-59
2023/06/06 22:37:36;;;;;;;2.72;1.60;;;;;;;15.84;43.69;100136.56;10503156;28;20097;-58
2023/06/06 22:42:38;;;;;;;2.95;1.55;;;;;;;15.78;43.89;100130.91;10505867;28;20117;-58
2023/06/06 22:47:40;;;;;;;2.63;1.38;;;;;;;15.78;43.94;100128.28;10505968;28;20051;-59
2023/06/06 22:52:42;;;;;;;2.83;1.60;;;;;;;15.77;43.99;100132.75;10507191;28;20173;-59
2023/06/06 22:57:44;;;;;;;3.42;1.58;;;;;;;15.71;44.24;100127.94;10487055;28;20067;-58
2023/06/06 23:02:47;;;;;;;2.05;1.58;;;;;;;15.67;44.22;100128.28;10508253;28;20491;-59
2023/06/06 23:07:49;;;;;;;2.80;1.58;;;;;;;15.63;44.59;100132.97;10509511;28;20135;-59
2023/06/06 23:12:51;;;;;;;2.13;1.35;;;;;;;15.62;44.49;100123.38;10513366;28;20665;-58
2023/06/06 23:17:53;;;;;;;3.35;1.50;;;;;;;15.53;44.69;100123.25;10513307;28;20043;-58
2023/06/06 23:22:55;;;;;;;2.70;1.60;;;;;;;15.34;45.38;100129.91;10513891;28;20060;-59